»·PEaware :: UAL384 KSAN-KSFO

UAL384 :: KSAN-KSFO

FLIGHT INFORMATION

Flight Status: Arrived
Operator:
United Airlines
More flights by this operator :: More flights under this callsign
Pilot: Alfredo R. (12181)
Aircraft: BOEING 737-800
(B738)
More flights by this aircraft type
Origin: KSAN San Diego Intl-Lindbergh
United States
Destination: KSFO San Francisco Intl
United States
More flights between these airports :: More routes between these airports
Route: + / MZB293031 STOKD SERFR SERFR2
File this flight plan on PilotEdge
Remarks:
Altitude:
(Current/Filed)
26,000ft
Speed:
(Current/Filed)
440kts
Departed: 27-Nov-17 08:17 PM
Arrived: 27-Nov-17 09:26 PM
Distance/Time
Traveled:
388nm/1:09
Distance/Time
To Go:
Arrived

Flight Plot

Page will automatically refresh every two minutes.

Flight plan parsing failed; only flown route is shown


Map Options




Map Legend


Flown Route
Filed Route
Departure Airport
Arrival Airport
Navaid (VOR, NDB)
Fix

Horizontal Profiles

Position Reports

Time Latitude Longitude Heading Altitude Ground
Speed
27-Nov-17 19:47 32.734276 -117.204725 106 24ft 0kts
27-Nov-17 19:48 32.734276 -117.204725 106 24ft 0kts
27-Nov-17 19:49 32.734276 -117.204725 106 24ft 0kts
27-Nov-17 19:50 32.734276 -117.204725 106 24ft 0kts
27-Nov-17 19:51 32.734276 -117.204725 106 24ft 0kts
27-Nov-17 19:52 32.734276 -117.204725 106 24ft 0kts
27-Nov-17 19:53 32.734276 -117.204725 106 24ft 0kts
27-Nov-17 19:54 32.734276 -117.204725 106 24ft 0kts
27-Nov-17 19:55 32.734276 -117.204725 106 24ft 0kts
27-Nov-17 19:56 32.734276 -117.204725 106 24ft 0kts
27-Nov-17 19:57 32.734276 -117.204725 106 24ft 0kts
27-Nov-17 19:58 32.734330 -117.204952 103 24ft 2kts
27-Nov-17 19:59 32.734219 -117.205556 11 24ft 2kts
27-Nov-17 20:00 32.734061 -117.205553 357 24ft 0kts
27-Nov-17 20:01 32.734061 -117.205553 357 24ft 0kts
27-Nov-17 20:02 32.734061 -117.205553 357 24ft 0kts
27-Nov-17 20:03 32.734061 -117.205553 357 24ft 0kts
27-Nov-17 20:04 32.734061 -117.205553 357 24ft 0kts
27-Nov-17 20:05 32.734196 -117.205555 2 24ft 1kts
27-Nov-17 20:06 32.734840 -117.205406 36 24ft 2kts
27-Nov-17 20:07 32.735220 -117.204920 51 25ft 2kts
27-Nov-17 20:08 32.735345 -117.204737 51 24ft 0kts
27-Nov-17 20:09 32.735345 -117.204737 51 24ft 0kts
27-Nov-17 20:10 32.735345 -117.204737 51 24ft 0kts
27-Nov-17 20:11 32.735770 -117.204165 48 24ft 4kts
27-Nov-17 20:12 32.735589 -117.202332 107 24ft 8kts
27-Nov-17 20:13 32.734716 -117.198673 106 24ft 13kts
27-Nov-17 20:14 32.733602 -117.194108 106 24ft 15kts
27-Nov-17 20:15 32.732392 -117.189091 106 25ft 16kts
27-Nov-17 20:16 32.731241 -117.184327 106 25ft 15kts
27-Nov-17 20:17 32.730064 -117.179486 106 25ft 15kts
27-Nov-17 20:18 32.729517 -117.176802 77 25ft 0kts
27-Nov-17 20:19 32.729701 -117.176092 69 24ft 4kts
27-Nov-17 20:20 32.730259 -117.176097 293 24ft 4kts
27-Nov-17 20:21 32.731357 -117.180610 286 24ft 25kts
27-Nov-17 20:22 32.739151 -117.212694 287 362ft 166kts
27-Nov-17 20:23 32.763721 -117.259524 310 2325ft 179kts
27-Nov-17 20:24 32.797841 -117.315748 309 3599ft 250kts
27-Nov-17 20:25 32.840601 -117.382023 307 6459ft 259kts
27-Nov-17 20:26 32.885006 -117.450979 307 8867ft 270kts
27-Nov-17 20:27 32.931854 -117.523689 308 10720ft 296kts
27-Nov-17 20:28 32.982255 -117.602412 309 12838ft 306kts
27-Nov-17 20:29 33.034841 -117.679781 315 14880ft 311kts
27-Nov-17 20:30 33.093431 -117.756577 312 17184ft 318kts
27-Nov-17 20:31 33.152964 -117.836932 312 19245ft 330kts
27-Nov-17 20:32 33.214258 -117.919488 311 21235ft 339kts
27-Nov-17 20:33 33.276871 -118.003573 311 23128ft 343kts
27-Nov-17 20:34 33.341168 -118.089689 311 24664ft 353kts
27-Nov-17 20:35 33.407659 -118.178460 312 26020ft 363kts
27-Nov-17 20:36 33.477769 -118.271716 312 26065ft 398kts
27-Nov-17 20:37 33.555032 -118.374192 312 26064ft 431kts
27-Nov-17 20:38 33.636240 -118.481502 312 26049ft 435kts
27-Nov-17 20:39 33.717617 -118.588751 313 26023ft 435kts
27-Nov-17 20:40 33.797367 -118.693264 312 26046ft 431kts
27-Nov-17 20:41 33.878135 -118.798989 312 26051ft 435kts
27-Nov-17 20:42 33.960352 -118.905904 312 26049ft 434kts
27-Nov-17 20:43 34.042124 -119.012147 312 26050ft 434kts
27-Nov-17 20:44 34.123885 -119.117757 313 26057ft 435kts
27-Nov-17 20:45 34.205959 -119.223423 313 26050ft 435kts
27-Nov-17 20:46 34.287730 -119.328392 313 26042ft 433kts
27-Nov-17 20:47 34.367950 -119.430782 313 26043ft 433kts
27-Nov-17 20:48 34.450665 -119.536265 313 26045ft 433kts
27-Nov-17 20:49 34.533211 -119.640808 313 26038ft 433kts
27-Nov-17 20:50 34.616046 -119.745688 313 26047ft 433kts
27-Nov-17 20:51 34.699554 -119.850675 313 26087ft 434kts
27-Nov-17 20:52 34.782503 -119.954744 314 26090ft 431kts
27-Nov-17 20:53 34.851298 -120.040721 313 26089ft 431kts
27-Nov-17 20:54 34.948881 -120.161984 314 26124ft 431kts
27-Nov-17 20:55 35.032042 -120.264877 314 26119ft 431kts
27-Nov-17 20:56 35.102476 -120.351866 313 26125ft 434kts
27-Nov-17 20:57 35.201247 -120.473369 314 26155ft 433kts
27-Nov-17 20:58 35.271948 -120.560178 314 26154ft 430kts
27-Nov-17 20:59 35.354959 -120.661706 314 26155ft 430kts
27-Nov-17 21:00 35.439805 -120.765055 314 26155ft 432kts
27-Nov-17 21:01 35.545648 -120.876211 321 26184ft 434kts
27-Nov-17 21:02 35.625235 -120.950695 321 26182ft 434kts
27-Nov-17 21:03 35.720968 -121.040192 321 26181ft 434kts
27-Nov-17 21:04 35.816556 -121.129600 321 26181ft 432kts
27-Nov-17 21:05 35.911936 -121.218679 321 26179ft 432kts
27-Nov-17 21:06 36.008010 -121.308396 321 26179ft 435kts
27-Nov-17 21:07 36.106371 -121.394545 326 26201ft 436kts
27-Nov-17 21:08 36.205603 -121.472095 326 25911ft 428kts
27-Nov-17 21:09 36.300570 -121.546649 325 24310ft 408kts
27-Nov-17 21:10 36.394046 -121.619789 326 22509ft 391kts
27-Nov-17 21:11 36.480822 -121.687824 325 20658ft 360kts
27-Nov-17 21:12 36.562021 -121.751973 325 18847ft 344kts
27-Nov-17 21:13 36.641229 -121.814768 325 17085ft 340kts
27-Nov-17 21:14 36.718243 -121.875792 326 15766ft 331kts
27-Nov-17 21:15 36.803996 -121.911694 345 14571ft 326kts
27-Nov-17 21:16 36.888065 -121.935143 346 13334ft 305kts
27-Nov-17 21:17 36.969727 -121.959909 342 12124ft 301kts
27-Nov-17 21:18 37.048382 -121.990822 342 10909ft 294kts
27-Nov-17 21:19 37.122338 -122.019793 343 9644ft 271kts
27-Nov-17 21:20 37.190975 -122.046663 343 8468ft 259kts
27-Nov-17 21:21 37.255320 -122.071861 343 7433ft 239kts
27-Nov-17 21:22 37.315236 -122.095313 343 6486ft 235kts
27-Nov-17 21:23 37.373693 -122.118252 343 5656ft 234kts
27-Nov-17 21:24 37.433810 -122.141898 343 4769ft 231kts
27-Nov-17 21:25 37.491363 -122.160938 347 3853ft 217kts
27-Nov-17 21:26 37.538861 -122.184771 301 3140ft 183kts
27-Nov-17 21:27 37.560477 -122.236583 300 2180ft 158kts
27-Nov-17 21:28 37.580827 -122.284905 299 1341ft 157kts
27-Nov-17 21:29 37.599606 -122.329620 298 549ft 136kts
27-Nov-17 21:30 37.616358 -122.369097 297 21ft 83kts
27-Nov-17 21:31 37.618970 -122.378029 269 21ft 7kts
27-Nov-17 21:32 37.618943 -122.380061 280 20ft 8kts
27-Nov-17 21:33 37.620164 -122.383239 298 21ft 11kts
27-Nov-17 21:34 37.619865 -122.385330 185 21ft 4kts
27-Nov-17 21:35 37.619066 -122.385948 179 21ft 2kts
27-Nov-17 21:36 37.618943 -122.385935 173 21ft 0kts
27-Nov-17 21:37 37.618943 -122.385935 173 21ft 0kts
27-Nov-17 21:38 37.618943 -122.385935 173 21ft 0kts
27-Nov-17 21:39 37.618943 -122.385935 173 21ft 0kts
27-Nov-17 21:40 37.618943 -122.385935 173 21ft 0kts
27-Nov-17 21:41 37.618943 -122.385935 173 21ft 0kts

Navigation Log

Ident Type
Flight plan parsing failed, navigation log unavailable